Stena Germanica — SKPZ — position and weather

sailwx.info

Track history (hours):
 
Tides and Currents Weather Stations Pressure Air Temp Water Temp Dewpoint Dewpoint Depression Visibility Wind Speed Wind Dir Waves Ship Positions

Stena Germanica

Last reported at 2017-Mar-28 01:34 UTC. Time now 2017-Mar-28 02:28 UTC.
Position N 55°41' E 016°35'.

Length 176 m; draft 6.6 m.

Type: Ship (hazmat cat A). MMSI: 265292000.

Date/timePositionNaut miles runAvg speedWind from/ knotsBaromVisibWave heightAir tempDewpointWater temp
2017-Mar-28 01:34N 55°41' E 016°35'1514.7
2017-Mar-28 00:32N 55°33' E 016°57'5714.1
2017-Mar-27 20:29N 55°02' E 018°22'1213.4
2017-Mar-27 19:33N 54°54' E 018°39'1414.3
2017-Mar-27 18:33N 54°43' E 018°55'1313.0
2017-Mar-27 17:33N 54°32' E 018°43'8 7.4
2017-Mar-27 16:31N 54°33' E 018°30'0 0.0
2017-Mar-27 15:31N 54°33' E 018°30'0 0.0
2017-Mar-27 14:31N 54°33' E 018°30'0 0.0
2017-Mar-27 13:31N 54°33' E 018°30'0 0.0
2017-Mar-27 12:31N 54°33' E 018°30'0 0.0
2017-Mar-27 11:31N 54°33' E 018°30'0 0.0
2017-Mar-27 10:31N 54°33' E 018°30'0 0.0
2017-Mar-27 09:31N 54°33' E 018°30'0 0.0
2017-Mar-27 08:31N 54°33' E 018°30'0 0.0
2017-Mar-27 07:31N 54°33' E 018°30'1 1.1
2017-Mar-27 06:33N 54°32' E 018°32'1212.4
2017-Mar-27 05:34N 54°36' E 018°52'1312.9
2017-Mar-27 04:33N 54°48' E 018°45'1515.3
2017-Mar-27 03:33N 54°58' E 018°25'1515.4
2017-Mar-27 02:33N 55°07' E 018°04'1615.3
2017-Mar-27 01:32N 55°16' E 017°41'1615.5
2017-Mar-27 00:29N 55°25' E 017°17'1515.6
2017-Mar-26 23:33N 55°33' E 016°56'1615.8
2017-Mar-26 22:33N 55°42' E 016°33'1616.0
2017-Mar-26 21:33N 55°50' E 016°08'1615.6
2017-Mar-26 20:33N 55°59' E 015°46'1111.4
2017-Mar-26 19:33N 56°10' E 015°37'0 0.3
2017-Mar-26 18:31N 56°10' E 015°38'4 3.8
2017-Mar-26 17:34N 56°07' E 015°35'1515.0
2017-Mar-26 16:34N 55°57' E 015°55'1716.8
2017-Mar-26 15:34N 55°47' E 016°20'1716.7
2017-Mar-26 14:34N 55°38' E 016°44'1716.7
2017-Mar-26 13:34N 55°29' E 017°09'1916.8
2017-Mar-26 12:25N 55°18' E 017°37'3116.8
2017-Mar-26 10:33N 55°01' E 018°23'1716.6
2017-Mar-26 09:33N 54°50' E 018°44'1514.9
2017-Mar-26 08:34N 54°36' E 018°54'1313.2
2017-Mar-26 07:33N 54°32' E 018°33'1 1.4
2017-Mar-26 06:31N 54°33' E 018°30'0 0.1
2017-Mar-26 05:33N 54°33' E 018°30'8 8.5
2017-Mar-26 04:33N 54°32' E 018°45'1212.4
2017-Mar-26 03:33N 54°44' E 018°51'1717.0
2017-Mar-26 02:33N 54°57' E 018°32'1716.9
2017-Mar-26 01:33N 55°07' E 018°08'5417.0
2017-Mar-25 22:23N 55°35' E 016°47'1417.2
2017-Mar-25 21:33N 55°43' E 016°26'1717.3
2017-Mar-25 20:33N 55°53' E 016°02'1717.1
2017-Mar-25 19:33N 56°03' E 015°37'7 6.9
2017-Mar-25 18:33N 56°10' E 015°38'0 0.2
2017-Mar-25 17:33N 56°10' E 015°38'1312.8
2017-Mar-25 16:33N 55°58' E 015°48'1616.5
2017-Mar-25 15:33N 55°49' E 016°12'1716.7
2017-Mar-25 14:33N 55°40' E 016°37'6816.8
2017-Mar-25 10:31N 55°03' E 018°17'1616.7
2017-Mar-25 09:33N 54°53' E 018°39'1716.8
2017-Mar-25 08:34N 54°40' E 018°58'1514.5
2017-Mar-25 07:33N 54°32' E 018°37'4 3.7
2017-Mar-25 06:31N 54°33' E 018°30'3 2.9
2017-Mar-25 05:33N 54°32' E 018°35'1110.8
2017-Mar-25 04:34N 54°36' E 018°53'1312.9
2017-Mar-25 03:34N 54°48' E 018°46'1414.3
2017-Mar-25 02:34N 54°59' E 018°30'1614.7
2017-Mar-25 01:29N 55°07' E 018°07'4415.0
2017-Mar-24 22:33N 55°31' E 017°02'1514.9
2017-Mar-24 21:33N 55°40' E 016°40'1515.4
2017-Mar-24 20:33N 55°48' E 016°17'1515.3
2017-Mar-24 19:34N 55°57' E 015°55'1413.9
2017-Mar-24 18:34N 56°04' E 015°34'6 5.8
2017-Mar-24 17:32N 56°10' E 015°38'0 0.0
2017-Mar-24 16:32N 56°10' E 015°38'0 0.0
2017-Mar-24 15:32N 56°10' E 015°38'0 0.0
2017-Mar-24 14:32N 56°10' E 015°38'0 0.0
2017-Mar-24 13:32N 56°10' E 015°38'0 0.0
2017-Mar-24 12:32N 56°10' E 015°38'0 0.0
2017-Mar-24 11:32N 56°10' E 015°38'0 0.0
2017-Mar-24 10:32N 56°10' E 015°38'0 0.0
2017-Mar-24 09:32N 56°10' E 015°38'0 0.0
2017-Mar-24 08:32N 56°10' E 015°38'3 3.1
2017-Mar-24 07:33N 56°07' E 015°35'1414.1
2017-Mar-24 06:33N 55°57' E 015°52'1515.1
2017-Mar-24 05:33N 55°49' E 016°15'1514.7
2017-Mar-24 04:33N 55°41' E 016°37'1514.6
2017-Mar-24 03:32N 55°33' E 016°59'3314.9
2017-Mar-24 01:19N 55°14' E 017°47'1114.6
2017-Mar-24 00:33N 55°08' E 018°04'1515.3
2017-Mar-23 23:34N 54°60' E 018°26'1313.2
2017-Mar-23 22:33N 54°51' E 018°43'1413.8
2017-Mar-23 21:33N 54°39' E 018°57'1111.5
2017-Mar-23 20:34N 54°32' E 018°42'7 6.8
2017-Mar-23 19:32N 54°33' E 018°30'0 0.0
2017-Mar-23 18:33N 54°33' E 018°30'7 6.7
2017-Mar-23 17:34N 54°32' E 018°42'1312.8
2017-Mar-23 16:34N 54°43' E 018°54'1716.8
2017-Mar-23 15:34N 54°56' E 018°34'1716.5
2017-Mar-23 14:33N 55°06' E 018°11'5316.7
2017-Mar-23 11:24N 55°34' E 016°54'1316.2
2017-Mar-23 10:34N 55°42' E 016°33'1716.9
2017-Mar-23 09:34N 55°51' E 016°08'1717.1
2017-Mar-23 08:34N 56°01' E 015°43'10 9.9
2017-Mar-23 07:33N 56°10' E 015°38'0 0.0
2017-Mar-23 06:32N 56°10' E 015°38'3 3.3
2017-Mar-23 05:33N 56°07' E 015°35'1514.9
2017-Mar-23 04:33N 55°57' E 015°54'1817.9
2017-Mar-23 03:33N 55°47' E 016°21'1817.5
2017-Mar-23 02:33N 55°38' E 016°48'5417.2
2017-Mar-22 23:24N 55°08' E 018°08'1416.9
2017-Mar-22 22:33N 54°60' E 018°28'1716.8
2017-Mar-22 21:33N 54°47' E 018°48'1413.9
2017-Mar-22 20:33N 54°34' E 018°51'1211.9
2017-Mar-22 19:33N 54°33' E 018°31'0 0.2
2017-Mar-22 18:32N 54°33' E 018°30'1 1.0
2017-Mar-22 17:33N 54°32' E 018°32'1313.4
2017-Mar-22 16:33N 54°37' E 018°54'1716.5
2017-Mar-22 15:33N 54°52' E 018°42'1717.1
2017-Mar-22 14:33N 55°03' E 018°19'1716.9
2017-Mar-22 13:33N 55°12' E 017°54'4016.6
2017-Mar-22 11:09N 55°34' E 016°55'1017.2
2017-Mar-22 10:33N 55°40' E 016°40'1717.6
2017-Mar-22 09:33N 55°49' E 016°14'1817.6
2017-Mar-22 08:33N 55°59' E 015°48'1212.1
2017-Mar-22 07:33N 56°09' E 015°37'1 0.6
2017-Mar-22 06:33N 56°10' E 015°38'3 3.1
2017-Mar-22 05:33N 56°07' E 015°35'1515.0
2017-Mar-22 04:33N 55°57' E 015°54'1817.5
2017-Mar-22 03:33N 55°47' E 016°20'1817.6
2017-Mar-22 02:33N 55°37' E 016°46'3717.9
2017-Mar-22 00:29N 55°17' E 017°41'1717.8
2017-Mar-21 23:32N 55°07' E 018°06'1717.6
2017-Mar-21 22:33N 54°58' E 018°31'1817.6
2017-Mar-21 21:34N 54°45' E 018°51'1413.8
2017-Mar-21 20:33N 54°32' E 018°46'9 9.0
2017-Mar-21 19:33N 54°33' E 018°30'0 0.0
2017-Mar-21 18:33N 54°33' E 018°30'2 2.2
2017-Mar-21 17:33N 54°32' E 018°34'1413.7
2017-Mar-21 16:34N 54°38' E 018°55'1717.1
2017-Mar-21 15:34N 54°53' E 018°39'1717.1
2017-Mar-21 14:34N 55°04' E 018°17'5418.1
2017-Mar-21 11:34N 55°32' E 016°56'1918.7
2017-Mar-21 10:33N 55°41' E 016°26'1818.3
2017-Mar-21 09:34N 55°52' E 016°00'1817.8
2017-Mar-21 08:33N 56°03' E 015°35'7 6.6
2017-Mar-21 07:32N 56°10' E 015°38'0 0.0
2017-Mar-21 06:32N 56°10' E 015°38'4 3.9
2017-Mar-21 05:33N 56°07' E 015°35'1313.5
2017-Mar-21 04:33N 55°57' E 015°52'1514.9
2017-Mar-21 03:33N 55°49' E 016°15'1515.1
2017-Mar-21 02:34N 55°41' E 016°37'6415.1
2017-Mar-20 22:19N 55°06' E 018°11'1215.7
2017-Mar-20 21:33N 54°59' E 018°28'1615.6
2017-Mar-20 20:33N 54°49' E 018°48'1413.8
2017-Mar-20 19:33N 54°35' E 018°53'1211.8
2017-Mar-20 18:34N 54°32' E 018°34'2 2.0
2017-Mar-20 17:34N 54°33' E 018°30'0 0.0
2017-Mar-20 16:33N 54°33' E 018°30'0 0.0
2017-Mar-20 15:34N 54°33' E 018°30'0 0.0
2017-Mar-20 14:33N 54°33' E 018°30'0 0.0
2017-Mar-20 13:33N 54°33' E 018°30'0 0.0
2017-Mar-20 12:33N 54°33' E 018°30'0 0.0
2017-Mar-20 11:33N 54°33' E 018°30'0 0.0
2017-Mar-20 10:34N 54°33' E 018°30'0 0.0
2017-Mar-20 09:33N 54°33' E 018°30'0 0.0
2017-Mar-20 08:34N 54°33' E 018°30'1 1.2
2017-Mar-20 07:34N 54°32' E 018°32'1212.1
2017-Mar-20 06:34N 54°35' E 018°52'1313.3
2017-Mar-20 05:33N 54°48' E 018°46'1515.3
2017-Mar-20 04:33N 54°59' E 018°28'1715.4
2017-Mar-20 03:28N 55°07' E 018°03'6115.2
2017-Mar-19 23:26N 55°42' E 016°34'1315.2
2017-Mar-19 22:33N 55°49' E 016°14'1515.3
2017-Mar-19 21:33N 55°58' E 015°51'1313.3
2017-Mar-19 20:33N 56°08' E 015°35'3 2.5
2017-Mar-19 19:32N 56°10' E 015°38'3 3.6
2017-Mar-19 18:33N 56°07' E 015°35'1414.3
2017-Mar-19 17:33N 55°57' E 015°54'1616.1
2017-Mar-19 16:33N 55°48' E 016°17'1615.7
2017-Mar-19 15:33N 55°39' E 016°41'1615.6
2017-Mar-19 14:33N 55°31' E 017°04'1816.0
2017-Mar-19 13:26N 55°21' E 017°30'3016.2
2017-Mar-19 11:33N 55°04' E 018°15'1616.3
2017-Mar-19 10:33N 54°54' E 018°37'1616.2
2017-Mar-19 09:33N 54°42' E 018°56'1313.1
2017-Mar-19 08:33N 54°32' E 018°42'7 6.7
2017-Mar-19 07:33N 54°33' E 018°30'0 0.0
2017-Mar-19 06:33N 54°33' E 018°30'8 7.5
2017-Mar-19 05:34N 54°32' E 018°43'1212.2
2017-Mar-19 04:34N 54°43' E 018°54'1615.6
2017-Mar-19 03:34N 54°55' E 018°37'1615.8
2017-Mar-19 02:34N 55°04' E 018°15'6315.2
2017-Mar-18 22:26N 55°39' E 016°43'1415.6
2017-Mar-18 21:33N 55°46' E 016°22'1515.5
2017-Mar-18 20:33N 55°55' E 015°59'1514.8
2017-Mar-18 19:34N 56°03' E 015°37'7 7.0
2017-Mar-18 18:33N 56°10' E 015°38'0 0.1
2017-Mar-18 17:33N 56°10' E 015°38'1211.8
2017-Mar-18 16:33N 55°59' E 015°47'1717.5
2017-Mar-18 15:33N 55°50' E 016°13'1817.5
2017-Mar-18 14:33N 55°40' E 016°39'5817.7
2017-Mar-18 11:18N 55°08' E 018°04'1318.2
2017-Mar-18 10:33N 55°02' E 018°25'1818.2
2017-Mar-18 09:33N 54°49' E 018°46'1515.0
2017-Mar-18 08:33N 54°34' E 018°52'1212.2
2017-Mar-18 07:33N 54°33' E 018°31'0 0.4
2017-Mar-18 06:33N 54°33' E 018°30'3 3.4
2017-Mar-18 05:33N 54°32' E 018°36'10 9.9
2017-Mar-18 04:34N 54°35' E 018°52'1312.6
2017-Mar-18 03:33N 54°48' E 018°47'1414.4
2017-Mar-18 02:33N 54°59' E 018°31'  
Track history (hours):
 
Tides and Currents Weather Stations Pressure Air Temp Water Temp Dewpoint Dewpoint Depression Visibility Wind Speed Wind Dir Waves Ship Positions

Stena Germanica

Last reported at 2017-Mar-28 01:34 UTC. Time now 2017-Mar-28 02:28 UTC.
Position N 55°41' E 016°35'.

Length 176 m; draft 6.6 m.

Type: Ship (hazmat cat A). MMSI: 265292000.

Date/timePositionNaut miles runAvg speedWind from/ knotsBaromVisibWave heightAir tempDewpointWater temp
2017-Mar-28 01:34N 55°41' E 016°35'1514.7
2017-Mar-28 00:32N 55°33' E 016°57'5714.1
2017-Mar-27 20:29N 55°02' E 018°22'1213.4
2017-Mar-27 19:33N 54°54' E 018°39'1414.3
2017-Mar-27 18:33N 54°43' E 018°55'1313.0
2017-Mar-27 17:33N 54°32' E 018°43'8 7.4
2017-Mar-27 16:31N 54°33' E 018°30'0 0.0
2017-Mar-27 15:31N 54°33' E 018°30'0 0.0
2017-Mar-27 14:31N 54°33' E 018°30'0 0.0
2017-Mar-27 13:31N 54°33' E 018°30'0 0.0
2017-Mar-27 12:31N 54°33' E 018°30'0 0.0
2017-Mar-27 11:31N 54°33' E 018°30'0 0.0
2017-Mar-27 10:31N 54°33' E 018°30'0 0.0
2017-Mar-27 09:31N 54°33' E 018°30'0 0.0
2017-Mar-27 08:31N 54°33' E 018°30'0 0.0
2017-Mar-27 07:31N 54°33' E 018°30'1 1.1
2017-Mar-27 06:33N 54°32' E 018°32'1212.4
2017-Mar-27 05:34N 54°36' E 018°52'1312.9
2017-Mar-27 04:33N 54°48' E 018°45'1515.3
2017-Mar-27 03:33N 54°58' E 018°25'1515.4
2017-Mar-27 02:33N 55°07' E 018°04'1615.3
2017-Mar-27 01:32N 55°16' E 017°41'1615.5
2017-Mar-27 00:29N 55°25' E 017°17'1515.6
2017-Mar-26 23:33N 55°33' E 016°56'1615.8
2017-Mar-26 22:33N 55°42' E 016°33'1616.0
2017-Mar-26 21:33N 55°50' E 016°08'1615.6
2017-Mar-26 20:33N 55°59' E 015°46'1111.4
2017-Mar-26 19:33N 56°10' E 015°37'0 0.3
2017-Mar-26 18:31N 56°10' E 015°38'4 3.8
2017-Mar-26 17:34N 56°07' E 015°35'1515.0
2017-Mar-26 16:34N 55°57' E 015°55'1716.8
2017-Mar-26 15:34N 55°47' E 016°20'1716.7
2017-Mar-26 14:34N 55°38' E 016°44'1716.7
2017-Mar-26 13:34N 55°29' E 017°09'1916.8
2017-Mar-26 12:25N 55°18' E 017°37'3116.8
2017-Mar-26 10:33N 55°01' E 018°23'1716.6
2017-Mar-26 09:33N 54°50' E 018°44'1514.9
2017-Mar-26 08:34N 54°36' E 018°54'1313.2
2017-Mar-26 07:33N 54°32' E 018°33'1 1.4
2017-Mar-26 06:31N 54°33' E 018°30'0 0.1
2017-Mar-26 05:33N 54°33' E 018°30'8 8.5
2017-Mar-26 04:33N 54°32' E 018°45'1212.4
2017-Mar-26 03:33N 54°44' E 018°51'1717.0
2017-Mar-26 02:33N 54°57' E 018°32'1716.9
2017-Mar-26 01:33N 55°07' E 018°08'5417.0
2017-Mar-25 22:23N 55°35' E 016°47'1417.2
2017-Mar-25 21:33N 55°43' E 016°26'1717.3
2017-Mar-25 20:33N 55°53' E 016°02'1717.1
2017-Mar-25 19:33N 56°03' E 015°37'7 6.9
2017-Mar-25 18:33N 56°10' E 015°38'0 0.2
2017-Mar-25 17:33N 56°10' E 015°38'1312.8
2017-Mar-25 16:33N 55°58' E 015°48'1616.5
2017-Mar-25 15:33N 55°49' E 016°12'1716.7
2017-Mar-25 14:33N 55°40' E 016°37'6816.8
2017-Mar-25 10:31N 55°03' E 018°17'1616.7
2017-Mar-25 09:33N 54°53' E 018°39'1716.8
2017-Mar-25 08:34N 54°40' E 018°58'1514.5
2017-Mar-25 07:33N 54°32' E 018°37'4 3.7
2017-Mar-25 06:31N 54°33' E 018°30'3 2.9
2017-Mar-25 05:33N 54°32' E 018°35'1110.8
2017-Mar-25 04:34N 54°36' E 018°53'1312.9
2017-Mar-25 03:34N 54°48' E 018°46'1414.3
2017-Mar-25 02:34N 54°59' E 018°30'1614.7
2017-Mar-25 01:29N 55°07' E 018°07'4415.0
2017-Mar-24 22:33N 55°31' E 017°02'1514.9
2017-Mar-24 21:33N 55°40' E 016°40'1515.4
2017-Mar-24 20:33N 55°48' E 016°17'1515.3
2017-Mar-24 19:34N 55°57' E 015°55'1413.9
2017-Mar-24 18:34N 56°04' E 015°34'6 5.8
2017-Mar-24 17:32N 56°10' E 015°38'0 0.0
2017-Mar-24 16:32N 56°10' E 015°38'0 0.0
2017-Mar-24 15:32N 56°10' E 015°38'0 0.0
2017-Mar-24 14:32N 56°10' E 015°38'0 0.0
2017-Mar-24 13:32N 56°10' E 015°38'0 0.0
2017-Mar-24 12:32N 56°10' E 015°38'0 0.0
2017-Mar-24 11:32N 56°10' E 015°38'0 0.0
2017-Mar-24 10:32N 56°10' E 015°38'0 0.0
2017-Mar-24 09:32N 56°10' E 015°38'0 0.0
2017-Mar-24 08:32N 56°10' E 015°38'3 3.1
2017-Mar-24 07:33N 56°07' E 015°35'1414.1
2017-Mar-24 06:33N 55°57' E 015°52'1515.1
2017-Mar-24 05:33N 55°49' E 016°15'1514.7
2017-Mar-24 04:33N 55°41' E 016°37'1514.6
2017-Mar-24 03:32N 55°33' E 016°59'3314.9
2017-Mar-24 01:19N 55°14' E 017°47'1114.6
2017-Mar-24 00:33N 55°08' E 018°04'1515.3
2017-Mar-23 23:34N 54°60' E 018°26'1313.2
2017-Mar-23 22:33N 54°51' E 018°43'1413.8
2017-Mar-23 21:33N 54°39' E 018°57'1111.5
2017-Mar-23 20:34N 54°32' E 018°42'7 6.8
2017-Mar-23 19:32N 54°33' E 018°30'0 0.0
2017-Mar-23 18:33N 54°33' E 018°30'7 6.7
2017-Mar-23 17:34N 54°32' E 018°42'1312.8
2017-Mar-23 16:34N 54°43' E 018°54'1716.8
2017-Mar-23 15:34N 54°56' E 018°34'1716.5
2017-Mar-23 14:33N 55°06' E 018°11'5316.7
2017-Mar-23 11:24N 55°34' E 016°54'1316.2
2017-Mar-23 10:34N 55°42' E 016°33'1716.9
2017-Mar-23 09:34N 55°51' E 016°08'1717.1
2017-Mar-23 08:34N 56°01' E 015°43'10 9.9
2017-Mar-23 07:33N 56°10' E 015°38'0 0.0
2017-Mar-23 06:32N 56°10' E 015°38'3 3.3
2017-Mar-23 05:33N 56°07' E 015°35'1514.9
2017-Mar-23 04:33N 55°57' E 015°54'1817.9
2017-Mar-23 03:33N 55°47' E 016°21'1817.5
2017-Mar-23 02:33N 55°38' E 016°48'5417.2
2017-Mar-22 23:24N 55°08' E 018°08'1416.9
2017-Mar-22 22:33N 54°60' E 018°28'1716.8
2017-Mar-22 21:33N 54°47' E 018°48'1413.9
2017-Mar-22 20:33N 54°34' E 018°51'1211.9
2017-Mar-22 19:33N 54°33' E 018°31'0 0.2
2017-Mar-22 18:32N 54°33' E 018°30'1 1.0
2017-Mar-22 17:33N 54°32' E 018°32'1313.4
2017-Mar-22 16:33N 54°37' E 018°54'1716.5
2017-Mar-22 15:33N 54°52' E 018°42'1717.1
2017-Mar-22 14:33N 55°03' E 018°19'1716.9
2017-Mar-22 13:33N 55°12' E 017°54'4016.6
2017-Mar-22 11:09N 55°34' E 016°55'1017.2
2017-Mar-22 10:33N 55°40' E 016°40'1717.6
2017-Mar-22 09:33N 55°49' E 016°14'1817.6
2017-Mar-22 08:33N 55°59' E 015°48'1212.1
2017-Mar-22 07:33N 56°09' E 015°37'1 0.6
2017-Mar-22 06:33N 56°10' E 015°38'3 3.1
2017-Mar-22 05:33N 56°07' E 015°35'1515.0
2017-Mar-22 04:33N 55°57' E 015°54'1817.5
2017-Mar-22 03:33N 55°47' E 016°20'1817.6
2017-Mar-22 02:33N 55°37' E 016°46'3717.9
2017-Mar-22 00:29N 55°17' E 017°41'1717.8
2017-Mar-21 23:32N 55°07' E 018°06'1717.6
2017-Mar-21 22:33N 54°58' E 018°31'1817.6
2017-Mar-21 21:34N 54°45' E 018°51'1413.8
2017-Mar-21 20:33N 54°32' E 018°46'9 9.0
2017-Mar-21 19:33N 54°33' E 018°30'0 0.0
2017-Mar-21 18:33N 54°33' E 018°30'2 2.2
2017-Mar-21 17:33N 54°32' E 018°34'1413.7
2017-Mar-21 16:34N 54°38' E 018°55'1717.1
2017-Mar-21 15:34N 54°53' E 018°39'1717.1
2017-Mar-21 14:34N 55°04' E 018°17'5418.1
2017-Mar-21 11:34N 55°32' E 016°56'1918.7
2017-Mar-21 10:33N 55°41' E 016°26'1818.3
2017-Mar-21 09:34N 55°52' E 016°00'1817.8
2017-Mar-21 08:33N 56°03' E 015°35'7 6.6
2017-Mar-21 07:32N 56°10' E 015°38'0 0.0
2017-Mar-21 06:32N 56°10' E 015°38'4 3.9
2017-Mar-21 05:33N 56°07' E 015°35'1313.5
2017-Mar-21 04:33N 55°57' E 015°52'1514.9
2017-Mar-21 03:33N 55°49' E 016°15'1515.1
2017-Mar-21 02:34N 55°41' E 016°37'6415.1
2017-Mar-20 22:19N 55°06' E 018°11'1215.7
2017-Mar-20 21:33N 54°59' E 018°28'1615.6
2017-Mar-20 20:33N 54°49' E 018°48'1413.8
2017-Mar-20 19:33N 54°35' E 018°53'1211.8
2017-Mar-20 18:34N 54°32' E 018°34'2 2.0
2017-Mar-20 17:34N 54°33' E 018°30'0 0.0
2017-Mar-20 16:33N 54°33' E 018°30'0 0.0
2017-Mar-20 15:34N 54°33' E 018°30'0 0.0
2017-Mar-20 14:33N 54°33' E 018°30'0 0.0
2017-Mar-20 13:33N 54°33' E 018°30'0 0.0
2017-Mar-20 12:33N 54°33' E 018°30'0 0.0
2017-Mar-20 11:33N 54°33' E 018°30'0 0.0
2017-Mar-20 10:34N 54°33' E 018°30'0 0.0
2017-Mar-20 09:33N 54°33' E 018°30'0 0.0
2017-Mar-20 08:34N 54°33' E 018°30'1 1.2
2017-Mar-20 07:34N 54°32' E 018°32'1212.1
2017-Mar-20 06:34N 54°35' E 018°52'1313.3
2017-Mar-20 05:33N 54°48' E 018°46'1515.3
2017-Mar-20 04:33N 54°59' E 018°28'1715.4
2017-Mar-20 03:28N 55°07' E 018°03'6115.2
2017-Mar-19 23:26N 55°42' E 016°34'1315.2
2017-Mar-19 22:33N 55°49' E 016°14'1515.3
2017-Mar-19 21:33N 55°58' E 015°51'1313.3
2017-Mar-19 20:33N 56°08' E 015°35'3 2.5
2017-Mar-19 19:32N 56°10' E 015°38'3 3.6
2017-Mar-19 18:33N 56°07' E 015°35'1414.3
2017-Mar-19 17:33N 55°57' E 015°54'1616.1
2017-Mar-19 16:33N 55°48' E 016°17'1615.7
2017-Mar-19 15:33N 55°39' E 016°41'1615.6
2017-Mar-19 14:33N 55°31' E 017°04'1816.0
2017-Mar-19 13:26N 55°21' E 017°30'3016.2
2017-Mar-19 11:33N 55°04' E 018°15'1616.3
2017-Mar-19 10:33N 54°54' E 018°37'1616.2
2017-Mar-19 09:33N 54°42' E 018°56'1313.1
2017-Mar-19 08:33N 54°32' E 018°42'7 6.7
2017-Mar-19 07:33N 54°33' E 018°30'0 0.0
2017-Mar-19 06:33N 54°33' E 018°30'8 7.5
2017-Mar-19 05:34N 54°32' E 018°43'1212.2
2017-Mar-19 04:34N 54°43' E 018°54'1615.6
2017-Mar-19 03:34N 54°55' E 018°37'1615.8
2017-Mar-19 02:34N 55°04' E 018°15'6315.2
2017-Mar-18 22:26N 55°39' E 016°43'1415.6
2017-Mar-18 21:33N 55°46' E 016°22'1515.5
2017-Mar-18 20:33N 55°55' E 015°59'1514.8
2017-Mar-18 19:34N 56°03' E 015°37'7 7.0
2017-Mar-18 18:33N 56°10' E 015°38'0 0.1
2017-Mar-18 17:33N 56°10' E 015°38'1211.8
2017-Mar-18 16:33N 55°59' E 015°47'1717.5
2017-Mar-18 15:33N 55°50' E 016°13'1817.5
2017-Mar-18 14:33N 55°40' E 016°39'5817.7
2017-Mar-18 11:18N 55°08' E 018°04'1318.2
2017-Mar-18 10:33N 55°02' E 018°25'1818.2
2017-Mar-18 09:33N 54°49' E 018°46'1515.0
2017-Mar-18 08:33N 54°34' E 018°52'1212.2
2017-Mar-18 07:33N 54°33' E 018°31'0 0.4
2017-Mar-18 06:33N 54°33' E 018°30'3 3.4
2017-Mar-18 05:33N 54°32' E 018°36'10 9.9
2017-Mar-18 04:34N 54°35' E 018°52'1312.6
2017-Mar-18 03:33N 54°48' E 018°47'1414.4
2017-Mar-18 02:33N 54°59' E 018°31'  

Dump ship's entire track history